createdAt,value
2019-03-02T00:02:08.705Z,75.20
2019-03-02T00:04:37.409Z,75.10
2019-03-02T00:07:08.074Z,74.80
2019-03-02T00:09:36.602Z,74.80
2019-03-02T00:12:05.401Z,75.00
2019-03-02T00:14:34.147Z,74.90
2019-03-02T00:17:02.874Z,75.80
2019-03-02T00:19:31.711Z,76.00
2019-03-02T00:22:06.516Z,76.10
2019-03-02T00:24:31.041Z,76.20
2019-03-02T00:26:59.738Z,76.30
2019-03-02T00:29:28.442Z,76.50
2019-03-02T00:31:57.194Z,76.50
2019-03-02T00:34:28.764Z,76.60
2019-03-02T00:36:58.459Z,76.80
2019-03-02T00:39:26.914Z,76.80
2019-03-02T00:41:55.637Z,77.10
2019-03-02T00:44:24.347Z,77.10
2019-03-02T00:46:56.388Z,77.20
2019-03-02T00:49:23.826Z,77.30
2019-03-02T00:51:52.609Z,77.40
2019-03-02T00:54:21.350Z,77.40
2019-03-02T00:56:50.149Z,77.50
2019-03-02T00:59:19.150Z,77.60
2019-03-02T01:02:10.410Z,77.80
2019-03-02T01:04:39.150Z,77.50
2019-03-02T01:07:28.416Z,78.10
2019-03-02T01:09:57.123Z,77.90
2019-03-02T01:12:25.840Z,78.00
2019-03-02T01:14:54.557Z,78.30
2019-03-02T01:17:23.261Z,78.50
2019-03-02T01:19:52.604Z,78.60
2019-03-02T01:22:22.555Z,78.80
2019-03-02T01:24:51.426Z,79.00
2019-03-02T01:27:20.158Z,79.10
2019-03-02T01:29:51.673Z,79.20
2019-03-02T01:32:19.492Z,79.10
2019-03-02T01:34:48.217Z,79.10
2019-03-02T01:37:16.945Z,79.30
2019-03-02T01:39:45.662Z,79.30
2019-03-02T01:42:17.423Z,79.40
2019-03-02T01:44:48.779Z,79.10
2019-03-02T01:47:17.026Z,79.50
2019-03-02T01:49:45.957Z,79.30
2019-03-02T01:52:14.806Z,79.50
2019-03-02T01:54:43.653Z,78.90
2019-03-02T01:57:13.818Z,79.50
2019-03-02T01:59:43.821Z,79.60
2019-03-02T02:02:12.597Z,79.70
2019-03-02T02:04:41.305Z,79.80
2019-03-02T02:07:10.015Z,79.90
2019-03-02T02:09:40.534Z,80.00
2019-03-02T02:12:09.245Z,80.00
2019-03-02T02:14:37.953Z,80.10
2019-03-02T02:17:06.829Z,80.20
2019-03-02T02:19:38.607Z,80.00
2019-03-02T02:22:06.130Z,80.20
2019-03-02T02:24:34.860Z,80.90
2019-03-02T02:27:59.671Z,80.30
2019-03-02T02:30:26.919Z,79.60
2019-03-02T02:33:02.627Z,80.00
2019-03-02T02:35:27.186Z,80.00
2019-03-02T02:37:55.902Z,80.20
2019-03-02T02:40:24.753Z,80.20
2019-03-02T02:42:53.485Z,80.20
2019-03-02T02:45:22.507Z,80.00
2019-03-02T02:47:53.942Z,80.20
2019-03-02T02:50:29.364Z,80.10
2019-03-02T02:52:52.347Z,80.20
2019-03-02T02:55:21.069Z,80.20
2019-03-02T02:57:49.775Z,80.30
2019-03-02T03:00:20.593Z,80.20
2019-03-02T03:02:49.335Z,80.30
2019-03-02T03:05:18.355Z,80.30
2019-03-02T03:07:53.392Z,80.40
2019-03-02T03:10:47.453Z,80.20
2019-03-02T03:13:16.278Z,80.50
2019-03-02T03:15:49.543Z,80.30
2019-03-02T03:18:18.268Z,80.30
2019-03-02T03:20:48.872Z,80.30
2019-03-02T03:23:20.080Z,80.40
2019-03-02T03:25:56.249Z,80.30
2019-03-02T03:28:18.382Z,80.50
2019-03-02T03:30:47.164Z,80.50
2019-03-02T03:33:15.980Z,80.50
2019-03-02T03:35:46.961Z,80.70
2019-03-02T03:38:15.773Z,80.70
2019-03-02T03:40:44.504Z,80.60
2019-03-02T03:43:13.250Z,80.90
2019-03-02T03:45:43.236Z,81.10
2019-03-02T03:48:12.866Z,81.30
2019-03-02T03:50:43.014Z,81.50
2019-03-02T03:53:14.051Z,81.60
2019-03-02T03:55:42.858Z,81.60
2019-03-02T03:58:13.066Z,81.70
2019-03-02T04:04:01.972Z,81.90
2019-03-02T04:06:30.666Z,80.80
2019-03-02T04:09:03.216Z,81.70
2019-03-02T04:11:30.996Z,81.90
2019-03-02T04:13:59.733Z,82.00
2019-03-02T04:16:28.438Z,82.10
2019-03-02T04:18:58.685Z,82.10
2019-03-02T04:21:39.557Z,82.30
2019-03-02T04:24:08.262Z,82.40
2019-03-02T04:26:38.407Z,82.30
2019-03-02T04:29:10.059Z,82.30
2019-03-02T04:31:37.910Z,82.30
2019-03-02T04:34:06.639Z,82.30
2019-03-02T04:36:35.358Z,82.40
2019-03-02T04:39:09.766Z,82.40
2019-03-02T04:41:39.628Z,82.40
2019-03-02T04:44:06.641Z,82.30
2019-03-02T04:46:35.393Z,82.30
2019-03-02T04:49:04.105Z,82.50
2019-03-02T04:51:35.073Z,82.60
2019-03-02T04:54:03.277Z,82.50
2019-03-02T04:56:31.991Z,82.50
2019-03-02T04:59:00.739Z,82.50
2019-03-02T05:01:29.439Z,82.60
2019-03-02T05:03:58.168Z,82.50
2019-03-02T05:06:26.867Z,82.50
2019-03-02T05:08:55.575Z,82.60
2019-03-02T05:11:24.289Z,82.60
2019-03-02T05:13:53.120Z,82.60
2019-03-02T05:16:21.821Z,82.70
2019-03-02T05:18:53.423Z,82.70
2019-03-02T05:21:20.990Z,82.70
2019-03-02T05:23:49.689Z,82.70
2019-03-02T05:26:18.425Z,82.80
2019-03-02T05:28:47.266Z,83.00
2019-03-02T05:31:15.994Z,82.90
2019-03-02T05:33:44.722Z,83.20
2019-03-02T05:36:13.553Z,83.30
2019-03-02T05:38:42.285Z,83.40
2019-03-02T05:41:10.990Z,83.40
2019-03-02T05:43:39.733Z,83.60
2019-03-02T05:46:08.493Z,84.10
2019-03-02T05:48:39.065Z,83.80
2019-03-02T05:51:07.763Z,83.90
2019-03-02T05:53:36.538Z,84.00
2019-03-02T05:56:05.426Z,84.20
2019-03-02T05:58:34.165Z,84.30
2019-03-02T06:01:02.949Z,84.20
2019-03-02T06:03:31.668Z,84.40
2019-03-02T06:06:00.389Z,84.50
2019-03-02T06:08:32.165Z,84.60
2019-03-02T06:11:01.967Z,84.60
2019-03-02T06:13:30.117Z,84.90
2019-03-02T06:15:58.829Z,84.80
2019-03-02T06:18:27.538Z,84.80
2019-03-02T06:20:56.325Z,84.90
2019-03-02T06:23:26.627Z,85.00
2019-03-02T06:25:58.840Z,85.10
2019-03-02T06:28:25.985Z,85.30
2019-03-02T06:30:54.727Z,85.20
2019-03-02T06:33:34.121Z,85.30
2019-03-02T06:36:04.866Z,85.50
2019-03-02T06:38:51.832Z,85.50
2019-03-02T06:41:20.953Z,85.60
2019-03-02T06:43:49.821Z,85.60
2019-03-02T06:46:20.244Z,85.70
2019-03-02T06:48:49.698Z,85.70
2019-03-02T06:51:18.749Z,85.90
2019-03-02T06:53:47.810Z,86.00
2019-03-02T06:56:16.825Z,86.20
2019-03-02T06:58:45.849Z,86.20
2019-03-02T07:01:14.967Z,86.30
2019-03-02T07:03:45.875Z,85.90
2019-03-02T07:06:14.793Z,86.30
2019-03-02T07:08:43.874Z,86.20
2019-03-02T07:11:12.895Z,86.60
2019-03-02T07:13:41.937Z,86.70
2019-03-02T07:16:10.981Z,86.90
2019-03-02T07:18:51.569Z,87.00
2019-03-02T07:21:20.604Z,87.10
2019-03-02T07:23:49.630Z,87.20
2019-03-02T07:26:19.696Z,87.30
2019-03-02T07:28:49.019Z,87.30
2019-03-02T07:31:17.836Z,87.20
2019-03-02T07:33:46.554Z,87.40
2019-03-02T07:36:15.293Z,87.30
2019-03-02T07:38:44.130Z,87.30
2019-03-02T07:41:12.950Z,87.50
2019-03-02T07:43:42.215Z,87.40
2019-03-02T07:46:12.741Z,87.30
2019-03-02T07:48:41.578Z,87.30
2019-03-02T07:51:10.339Z,87.50
2019-03-02T07:53:39.069Z,87.50
2019-03-02T07:56:07.801Z,87.50
2019-03-02T07:58:36.678Z,87.50
2019-03-02T08:01:05.462Z,87.60
2019-03-02T08:03:34.190Z,87.60
2019-03-02T08:06:02.923Z,87.60
2019-03-02T08:08:31.623Z,87.50
2019-03-02T08:11:00.430Z,87.60
2019-03-02T08:13:29.186Z,87.70
2019-03-02T08:15:59.969Z,87.60
2019-03-02T08:18:29.353Z,86.60
2019-03-02T08:21:00.770Z,86.70
2019-03-02T08:23:28.672Z,86.60
2019-03-02T08:25:57.393Z,86.80
2019-03-02T08:28:26.189Z,86.50
2019-03-02T08:30:54.909Z,86.60
2019-03-02T08:33:23.709Z,86.60
2019-03-02T08:35:52.578Z,86.60
2019-03-02T08:38:21.316Z,86.50
2019-03-02T08:40:50.139Z,86.70
2019-03-02T08:43:18.965Z,86.80
2019-03-02T08:45:47.709Z,86.70
2019-03-02T08:48:16.449Z,86.80
2019-03-02T08:50:45.703Z,86.80
2019-03-02T08:53:14.574Z,86.80
2019-03-02T08:55:43.366Z,87.00
2019-03-02T08:58:12.205Z,86.80
2019-03-02T09:00:42.382Z,86.80
2019-03-02T09:03:11.463Z,86.60
2019-03-02T09:05:44.344Z,86.90
2019-03-02T09:08:10.780Z,86.90
2019-03-02T09:10:39.544Z,86.70
2019-03-02T09:13:08.286Z,86.60
2019-03-02T09:15:36.993Z,86.40
2019-03-02T09:18:05.719Z,86.30
2019-03-02T09:20:35.777Z,86.20
2019-03-02T09:23:05.160Z,86.20
2019-03-02T09:25:35.241Z,85.80
2019-03-02T09:28:04.353Z,86.00
2019-03-02T09:30:33.097Z,85.90
2019-03-02T09:33:01.842Z,86.10
2019-03-02T09:35:30.656Z,86.00
2019-03-02T09:37:59.443Z,86.00
2019-03-02T09:40:28.385Z,85.80
2019-03-02T09:42:57.148Z,85.80
2019-03-02T09:45:25.965Z,85.80
2019-03-02T09:47:54.804Z,85.70
2019-03-02T09:50:25.726Z,85.60
2019-03-02T09:52:55.843Z,85.60
2019-03-02T09:55:24.815Z,85.90
2019-03-02T09:57:53.642Z,85.60
2019-03-02T10:00:25.364Z,84.70
2019-03-02T10:02:53.931Z,84.80
2019-03-02T10:05:25.948Z,84.70
2019-03-02T10:07:54.427Z,84.50
2019-03-02T10:10:25.054Z,84.30
2019-03-02T10:12:53.607Z,84.30
2019-03-02T10:15:22.777Z,84.30
2019-03-02T10:17:51.476Z,84.00
2019-03-02T10:20:20.393Z,83.90
2019-03-02T10:22:49.129Z,83.40
2019-03-02T10:25:17.919Z,83.20
2019-03-02T10:27:47.094Z,83.10
2019-03-02T10:30:17.434Z,83.00
2019-03-02T10:32:46.221Z,82.50
2019-03-02T10:35:16.975Z,82.10
2019-03-02T10:37:46.392Z,82.30
2019-03-02T10:40:15.797Z,82.50
2019-03-02T10:42:44.617Z,82.20
2019-03-02T10:45:15.470Z,81.90
2019-03-02T10:47:44.178Z,81.60
2019-03-02T10:50:15.209Z,81.60
2019-03-02T10:52:45.830Z,81.90
2019-03-02T10:55:16.241Z,81.60
2019-03-02T10:57:45.049Z,81.50
2019-03-02T11:00:18.125Z,82.40
2019-03-02T11:02:46.869Z,81.50
2019-03-02T11:05:33.797Z,81.60
2019-03-02T11:08:24.957Z,81.30
2019-03-02T11:11:10.486Z,81.40
2019-03-02T11:13:56.439Z,81.70
2019-03-02T11:16:32.856Z,81.10
2019-03-02T11:19:29.549Z,80.70
2019-03-02T11:22:38.198Z,80.30
2019-03-02T11:25:20.970Z,79.80
2019-03-02T11:28:05.625Z,80.50
2019-03-02T11:30:56.006Z,80.40
2019-03-02T11:33:46.745Z,80.20
2019-03-02T11:36:41.972Z,80.00
2019-03-02T11:39:30.113Z,79.30
2019-03-02T11:42:19.513Z,79.20
2019-03-02T11:45:13.191Z,79.30
2019-03-02T11:47:59.766Z,78.70
2019-03-02T11:50:50.984Z,78.40
2019-03-02T11:53:24.717Z,77.60
2019-03-02T11:56:06.614Z,77.10
2019-03-02T11:59:05.962Z,76.70
2019-03-02T12:01:54.033Z,75.40
2019-03-02T12:04:30.613Z,75.70
2019-03-02T12:07:27.365Z,75.20
2019-03-02T12:10:05.201Z,74.60
2019-03-02T12:12:41.869Z,74.60
2019-03-02T12:15:25.372Z,74.20
2019-03-02T12:18:16.433Z,73.20
2019-03-02T12:21:03.781Z,73.30
2019-03-02T12:23:42.481Z,72.40
2019-03-02T12:26:29.738Z,72.60
2019-03-02T12:29:09.240Z,72.40
2019-03-02T12:31:45.337Z,71.70
2019-03-02T12:34:19.883Z,71.00
2019-03-02T12:37:10.503Z,70.70
2019-03-02T12:40:02.934Z,70.50
2019-03-02T12:42:34.670Z,70.60
2019-03-02T12:45:35.305Z,70.80
2019-03-02T12:48:23.443Z,69.50
2019-03-02T12:51:02.608Z,69.20
2019-03-02T12:53:34.438Z,69.40
2019-03-02T12:56:42.023Z,69.20
2019-03-02T12:59:35.988Z,69.10
2019-03-02T13:02:15.316Z,69.00
2019-03-02T13:05:02.010Z,68.60
2019-03-02T13:07:50.902Z,68.00
2019-03-02T13:10:30.145Z,69.00
2019-03-02T13:13:06.133Z,69.10
2019-03-02T13:15:54.409Z,68.70
2019-03-02T13:18:39.090Z,68.80
2019-03-02T13:21:25.945Z,68.80
2019-03-02T13:24:11.013Z,68.50
2019-03-02T13:26:57.485Z,67.60
2019-03-02T13:29:40.919Z,67.60
2019-03-02T13:32:22.618Z,67.40
2019-03-02T13:35:08.425Z,67.40
2019-03-02T13:37:47.541Z,66.50
2019-03-02T13:40:26.312Z,66.80
2019-03-02T13:43:04.769Z,67.20
2019-03-02T13:45:41.058Z,66.70
2019-03-02T13:48:22.226Z,67.00
2019-03-02T13:51:15.497Z,66.80
2019-03-02T13:53:59.290Z,67.00
2019-03-02T13:56:45.472Z,66.70
2019-03-02T13:59:27.102Z,67.00
2019-03-02T14:02:13.720Z,67.70
2019-03-02T14:05:04.934Z,67.90
2019-03-02T14:07:38.053Z,68.30
2019-03-02T14:10:26.401Z,68.60
2019-03-02T14:13:11.760Z,69.20
2019-03-02T14:15:55.394Z,69.60
2019-03-02T14:18:30.533Z,69.60
2019-03-02T14:21:21.341Z,69.60
2019-03-02T14:24:04.046Z,70.20
2019-03-02T14:26:49.435Z,71.20
2019-03-02T14:29:27.177Z,70.60
2019-03-02T14:32:03.065Z,70.60
2019-03-02T14:34:47.957Z,71.10
2019-03-02T14:37:25.322Z,71.60
2019-03-02T14:40:14.584Z,72.10
2019-03-02T14:43:19.967Z,71.50
2019-03-02T14:46:05.453Z,71.60
2019-03-02T14:48:51.410Z,71.70
2019-03-02T14:51:45.133Z,71.90
2019-03-02T14:54:21.825Z,72.00
2019-03-02T14:57:15.787Z,72.20
2019-03-02T15:00:02.451Z,72.50
2019-03-02T15:02:41.070Z,72.90
2019-03-02T15:05:16.004Z,73.10
2019-03-02T15:08:05.530Z,73.40
2019-03-02T15:10:44.915Z,73.60
2019-03-02T15:13:35.574Z,74.00
2019-03-02T15:16:32.486Z,74.20
2019-03-02T15:19:10.981Z,74.70
2019-03-02T15:21:58.017Z,74.80
2019-03-02T15:24:35.389Z,74.90
2019-03-02T15:27:16.813Z,75.70
2019-03-02T15:30:13.350Z,75.30
2019-03-02T15:33:00.167Z,75.50
2019-03-02T15:36:00.457Z,75.90
2019-03-02T15:38:55.650Z,76.10
2019-03-02T15:41:52.955Z,76.70
2019-03-02T15:44:32.638Z,76.90
2019-03-02T15:47:20.518Z,77.00
2019-03-02T15:50:18.884Z,77.10
2019-03-02T15:53:06.921Z,77.20
2019-03-02T15:55:52.382Z,77.20
2019-03-02T15:58:36.959Z,77.50
2019-03-02T16:01:18.738Z,76.80
2019-03-02T16:04:04.797Z,77.80
2019-03-02T16:07:02.322Z,77.80
2019-03-02T16:09:54.469Z,78.20
2019-03-02T16:12:40.871Z,79.20
2019-03-02T16:15:26.311Z,79.90
2019-03-02T16:18:17.521Z,80.20
2019-03-02T16:21:00.269Z,80.60
2019-03-02T16:23:35.402Z,80.70
2019-03-02T16:26:23.255Z,81.20
2019-03-02T16:29:04.873Z,81.70
2019-03-02T16:31:41.201Z,82.60
2019-03-02T16:34:35.575Z,82.20
2019-03-02T16:37:17.031Z,82.20
2019-03-02T16:40:00.219Z,83.10
2019-03-02T16:42:50.723Z,82.80
2019-03-02T16:45:23.239Z,83.10
2019-03-02T16:48:10.554Z,83.40
2019-03-02T16:50:55.625Z,83.60
2019-03-02T16:53:46.857Z,83.90
2019-03-02T16:56:31.033Z,84.00
2019-03-02T16:59:15.766Z,84.20
2019-03-02T17:02:03.672Z,84.60
2019-03-02T17:04:55.444Z,84.70
2019-03-02T17:07:40.374Z,84.70
2019-03-02T17:10:26.979Z,84.90
2019-03-02T17:13:14.804Z,85.20
2019-03-02T17:16:04.186Z,85.20
2019-03-02T17:18:40.669Z,85.20
2019-03-02T17:21:16.586Z,85.40
2019-03-02T17:23:52.186Z,85.80
2019-03-02T17:26:47.079Z,86.10
2019-03-02T17:29:36.440Z,85.90
2019-03-02T17:32:20.913Z,86.10
2019-03-02T17:35:07.834Z,86.30
2019-03-02T17:37:46.438Z,86.50
2019-03-02T17:40:34.426Z,86.60
2019-03-02T17:43:25.686Z,86.30
2019-03-02T17:46:14.213Z,86.60
2019-03-02T17:48:49.901Z,86.80
2019-03-02T17:51:40.819Z,87.10
2019-03-02T17:54:17.066Z,87.10
2019-03-02T17:57:09.337Z,87.10
2019-03-02T18:00:01.261Z,87.30
2019-03-02T18:02:47.865Z,86.90
2019-03-02T18:05:32.690Z,87.40
2019-03-02T18:08:12.241Z,87.40
2019-03-02T18:10:47.888Z,87.40
2019-03-02T18:13:35.509Z,87.40
2019-03-02T18:16:20.810Z,87.50
2019-03-02T18:18:50.715Z,87.70
2019-03-02T18:21:22.937Z,87.50
2019-03-02T18:23:51.864Z,87.70
2019-03-02T18:26:20.648Z,87.90
2019-03-02T18:28:54.060Z,87.90
2019-03-02T18:31:21.841Z,88.10
2019-03-02T18:33:56.947Z,87.80
2019-03-02T18:36:25.809Z,87.60
2019-03-02T18:38:55.002Z,87.70
2019-03-02T18:41:26.421Z,87.60
2019-03-02T18:43:55.194Z,87.40
2019-03-02T18:46:24.025Z,87.50
2019-03-02T18:49:14.868Z,87.50
2019-03-02T18:51:49.201Z,87.30
2019-03-02T18:54:17.937Z,87.30
2019-03-02T18:56:48.873Z,87.40
2019-03-02T18:59:17.269Z,87.50
2019-03-02T19:01:49.765Z,87.90
2019-03-02T19:04:25.245Z,87.90
2019-03-02T19:06:54.610Z,88.00
2019-03-02T19:09:25.892Z,88.10
2019-03-02T19:11:55.147Z,87.80
2019-03-02T19:14:24.702Z,87.40
2019-03-02T19:16:56.182Z,87.90
2019-03-02T19:19:26.646Z,86.90
2019-03-02T19:21:55.769Z,87.90
2019-03-02T19:24:24.705Z,88.00
2019-03-02T19:26:53.497Z,88.00
2019-03-02T19:29:22.222Z,88.20
2019-03-02T19:31:54.041Z,87.70
2019-03-02T19:34:23.372Z,87.80
2019-03-02T19:36:52.210Z,87.40
2019-03-02T19:39:24.990Z,87.30
2019-03-02T19:41:53.945Z,87.30
2019-03-02T19:44:25.803Z,87.10
2019-03-02T19:46:59.882Z,86.40
2019-03-02T19:49:28.685Z,86.00
2019-03-02T19:52:00.281Z,85.90
2019-03-02T19:54:29.117Z,85.60
2019-03-02T19:57:01.093Z,84.50
2019-03-02T19:59:29.870Z,85.00
2019-03-02T20:01:58.642Z,84.70
2019-03-02T20:04:30.636Z,84.60
2019-03-02T20:07:01.809Z,84.20
2019-03-02T20:09:30.557Z,83.90
2019-03-02T20:11:59.357Z,83.60
2019-03-02T20:14:28.146Z,83.60
2019-03-02T20:16:58.120Z,83.20
2019-03-02T20:19:32.474Z,83.00
2019-03-02T20:22:04.310Z,83.20
2019-03-02T20:24:33.042Z,82.90
2019-03-02T20:27:03.861Z,82.80
2019-03-02T20:29:35.624Z,82.50
2019-03-02T20:32:04.570Z,81.70
2019-03-02T20:34:33.433Z,81.60
2019-03-02T20:37:02.177Z,81.50
2019-03-02T20:39:30.886Z,81.50
2019-03-02T20:41:59.810Z,81.30
2019-03-02T20:44:28.598Z,80.50
2019-03-02T20:46:57.423Z,81.30
2019-03-02T20:49:26.276Z,81.30
2019-03-02T20:51:57.770Z,81.20
2019-03-02T20:54:26.778Z,81.40
2019-03-02T20:56:57.567Z,80.90
2019-03-02T20:59:28.837Z,81.60
2019-03-02T21:01:57.605Z,81.50
2019-03-02T21:04:26.385Z,81.30
2019-03-02T21:06:55.195Z,81.60
2019-03-02T21:09:23.989Z,81.60
2019-03-02T21:11:52.803Z,81.30
2019-03-02T21:14:21.525Z,81.30
2019-03-02T21:16:50.311Z,81.30
2019-03-02T21:19:19.071Z,81.10
2019-03-02T21:21:48.212Z,81.00
2019-03-02T21:24:17.049Z,80.80
2019-03-02T21:26:45.818Z,80.70
2019-03-02T21:29:14.607Z,80.70
2019-03-02T21:31:46.673Z,80.90
2019-03-02T21:34:18.468Z,80.60
2019-03-02T21:36:47.206Z,80.80
2019-03-02T21:39:16.825Z,80.90
2019-03-02T21:41:45.646Z,81.00
2019-03-02T21:44:14.478Z,80.80
2019-03-02T21:46:43.293Z,80.90
2019-03-02T21:49:15.037Z,81.00
2019-03-02T21:51:43.738Z,81.00
2019-03-02T21:54:12.461Z,81.20
2019-03-02T21:56:41.197Z,81.10
2019-03-02T21:59:09.905Z,81.20
2019-03-02T22:01:38.676Z,81.20
2019-03-02T22:04:07.397Z,81.20
2019-03-02T22:06:36.130Z,81.20
2019-03-02T22:09:05.680Z,81.20
2019-03-02T22:11:35.469Z,81.10
2019-03-02T22:14:05.447Z,81.10
2019-03-02T22:16:34.260Z,81.20
2019-03-02T22:19:03.162Z,81.90
2019-03-02T22:21:31.969Z,81.00
2019-03-02T22:24:00.680Z,81.10
2019-03-02T22:26:29.445Z,81.10
2019-03-02T22:28:58.146Z,81.20
2019-03-02T22:31:26.893Z,81.20
2019-03-02T22:33:55.685Z,81.30
2019-03-02T22:36:24.660Z,81.30
2019-03-02T22:38:53.384Z,81.60
2019-03-02T22:41:22.123Z,81.50
2019-03-02T22:43:50.902Z,81.50
2019-03-02T22:46:19.598Z,81.40
2019-03-02T22:48:49.965Z,81.30
2019-03-02T22:51:18.751Z,81.30
2019-03-02T22:53:47.576Z,81.30
2019-03-02T22:56:16.381Z,81.30
2019-03-02T22:58:44.302Z,81.10
2019-03-02T23:01:33.713Z,80.80
2019-03-02T23:04:05.397Z,81.10
2019-03-02T23:06:34.205Z,80.90
2019-03-02T23:09:04.632Z,80.90
2019-03-02T23:11:35.446Z,80.80
2019-03-02T23:14:04.270Z,80.80
2019-03-02T23:16:33.019Z,80.70
2019-03-02T23:19:04.413Z,80.80
2019-03-02T23:21:33.209Z,80.10
2019-03-02T23:24:01.919Z,80.50
2019-03-02T23:26:30.853Z,80.40
2019-03-02T23:28:59.661Z,79.60
2019-03-02T23:31:28.423Z,80.30
2019-03-02T23:33:57.176Z,80.10
2019-03-02T23:36:25.954Z,80.10
2019-03-02T23:38:54.817Z,80.00
2019-03-02T23:41:23.545Z,79.80
2019-03-02T23:43:55.052Z,80.00
2019-03-02T23:46:23.781Z,79.90
2019-03-02T23:48:52.513Z,80.10
2019-03-02T23:51:21.253Z,79.80
2019-03-02T23:53:50.014Z,80.40
2019-03-02T23:56:18.725Z,79.90
2019-03-02T23:58:47.487Z,79.90
